Main page
METAR-TAF:

METAR-TAF

Airports :

Edinburgh, Scotland

Edinburgh Airport

latitude: 55-57N, longitude: 003-21W, elevation: 41 m

Current weather observation

The report was made 2 hours and 55 minutes ago, at 14:50 UTC
Wind 3 kt from variable directions
Temperature 10°C
Humidity 57%
Pressure 1026 hPa
Visibility 10 km or more
Scattered clouds at a height of 4200 ft

METAR: EGPH 201450Z VRB03KT 9999 SCT042 10/02 Q1026

Time: 17:45 (17:45 UTC)

Forecast

The report was made 6 hours and 47 minutes ago, at 10:58 UTC
Forecast valid from 20 at 12 UTC to 21 at 12 UTC
Wind 9 kt from the West
Visibility 10 km or more
Scattered clouds at a height of 4000 ft
Probability 30% :
Temporary
from 21 at 02 UTC to 21 at 10 UTC
Visibility: 7000 m

TAF: EGPH 201058Z 2012/2112 26009KT 9999 SCT040 PROB30 TEMPO 2102/2110 7000

Weather observations and forecasts of more than 4000 airports (METAR and TAF reports).

The available stations are represented by yellow and red dots on the map.

Hover mouse over dot to see the name of the station.

Then click to see weather observations and forecasts.

To change the map : click on the green buttons with a black cross to zoom in, on the green button with a dash to zoom out, or on the green arrows for adjacent maps.


METAR-TAF: